Time;durP1;ratioP1;P1;durP2;ratioP2;P2;SDS_P1;SDS_P2;PMS_P1;PMS_P2;Temp;Humidity;BMP_temperature;BMP_pressure;BME280_temperature;BME280_humidity;BME280_pressure;Samples;Min_cycle;Max_cycle;Signal;HPM_P1;HPM_P2
2022/07/28 00:00:42;;;;;;;2.35;0.40;;;;;;;8.79;94.38;101978.56;1995507;29;28940;-69
2022/07/28 00:01:46;;;;;;;6.45;0.75;;;;;;;8.78;94.29;101987.44;1995046;29;39065;-68
2022/07/28 00:02:48;;;;;;;4.13;0.40;;;;;;;8.76;94.48;101981.22;1995227;29;30058;-68
2022/07/28 00:03:50;;;;;;;5.03;0.88;;;;;;;8.78;95.68;101982.09;1995976;29;23006;-69
2022/07/28 00:04:52;;;;;;;4.45;0.60;;;;;;;8.76;95.19;101983.00;1995553;29;28629;-68
2022/07/28 00:05:54;;;;;;;1.95;0.60;;;;;;;8.75;95.19;101987.41;1996011;29;20963;-68
2022/07/28 00:06:55;;;;;;;2.85;0.32;;;;;;;8.72;94.94;101979.44;1995475;29;34152;-68
2022/07/28 00:07:57;;;;;;;4.95;0.77;;;;;;;8.69;94.14;101979.41;2003358;29;23877;-68
2022/07/28 00:08:59;;;;;;;1.75;0.40;;;;;;;8.69;94.73;101986.53;2001927;29;30429;-68
2022/07/28 00:10:03;;;;;;;4.78;0.40;;;;;;;8.67;95.07;101986.53;2002108;29;35574;-69
2022/07/28 00:11:07;;;;;;;3.63;0.55;;;;;;;8.64;94.32;101988.31;2001472;29;27447;-68
2022/07/28 00:12:09;;;;;;;2.33;0.40;;;;;;;8.66;95.10;101990.06;1995029;29;32273;-68
2022/07/28 00:13:13;;;;;;;3.95;0.70;;;;;;;8.62;94.14;101980.28;1995551;29;29428;-68
2022/07/28 00:14:15;;;;;;;4.30;0.52;;;;;;;8.60;94.59;101992.75;1995666;29;26146;-68
2022/07/28 00:15:17;;;;;;;1.95;0.60;;;;;;;8.58;94.76;101990.06;1995321;29;33189;-69
2022/07/28 00:16:19;;;;;;;1.98;0.50;;;;;;;8.56;94.75;101985.59;1995708;29;20985;-69
2022/07/28 00:17:21;;;;;;;3.30;0.50;;;;;;;8.51;94.81;101985.59;1995268;29;32119;-69
2022/07/28 00:18:23;;;;;;;5.78;0.57;;;;;;;8.48;94.11;101987.38;1996125;29;29329;-69
2022/07/28 00:19:24;;;;;;;3.30;0.50;;;;;;;8.45;94.83;101982.03;2001931;29;31602;-69
2022/07/28 00:20:26;;;;;;;4.75;0.60;;;;;;;8.39;94.73;101985.53;2000801;29;35691;-68
2022/07/28 00:21:29;;;;;;;4.10;0.55;;;;;;;8.32;94.88;101979.28;1993435;29;32855;-69
2022/07/28 00:22:31;;;;;;;3.50;0.63;;;;;;;8.31;94.56;101987.28;1994215;29;30984;-69
2022/07/28 00:23:33;;;;;;;2.17;0.40;;;;;;;8.29;95.22;101987.31;1993672;29;33224;-68
2022/07/28 00:24:39;;;;;;;4.07;0.70;;;;;;;8.27;95.58;101988.16;1993528;29;30302;-69
2022/07/28 00:25:41;;;;;;;4.63;0.40;;;;;;;8.26;95.36;101978.41;2000784;29;27505;-69
2022/07/28 00:26:43;;;;;;;3.22;0.40;;;;;;;8.26;95.36;101984.63;1993733;29;28912;-69
2022/07/28 00:27:48;;;;;;;3.00;0.40;;;;;;;8.23;96.12;101984.59;1994311;29;20270;-69
2022/07/28 00:28:49;;;;;;;4.50;0.50;;;;;;;8.20;95.62;101987.25;2000716;29;29034;-69
2022/07/28 00:29:51;;;;;;;3.42;0.65;;;;;;;8.21;96.25;101984.59;1994495;29;20047;-69
2022/07/28 00:30:54;;;;;;;3.65;0.88;;;;;;;8.20;96.50;101981.91;1994109;29;33397;-69
2022/07/28 00:31:56;;;;;;;3.55;0.63;;;;;;;8.21;96.72;101989.03;2001095;29;28148;-69
2022/07/28 00:32:58;;;;;;;3.10;0.80;;;;;;;8.20;97.25;101989.91;2000839;29;29477;-69
2022/07/28 00:33:59;;;;;;;4.40;0.47;;;;;;;8.19;96.47;101985.47;1994115;29;27151;-69
2022/07/28 00:35:01;;;;;;;3.78;0.60;;;;;;;8.16;96.68;101996.13;1994687;29;20091;-69
2022/07/28 00:36:03;;;;;;;4.05;0.80;;;;;;;8.17;97.35;101987.25;1994070;29;27886;-69
2022/07/28 00:37:05;;;;;;;5.55;0.80;;;;;;;8.14;97.34;101990.78;1993986;29;31835;-69
2022/07/28 00:38:09;;;;;;;3.05;0.50;;;;;;;8.15;97.56;101983.69;1994463;29;20050;-69
2022/07/28 00:39:11;;;;;;;4.07;0.70;;;;;;;8.19;98.81;101988.16;1993924;29;34613;-69
2022/07/28 00:40:13;;;;;;;4.53;0.82;;;;;;;8.19;98.75;101988.16;1994124;29;28676;-69
2022/07/28 00:41:15;;;;;;;4.85;1.00;;;;;;;8.41;100.00;101989.97;1994107;29;24230;-69
2022/07/28 00:42:18;;;;;;;4.60;0.93;;;;;;;8.33;99.50;101986.41;2000819;29;34723;-69
2022/07/28 00:43:21;;;;;;;4.55;0.70;;;;;;;8.31;99.32;101980.19;2000842;29;20077;-69
2022/07/28 00:44:22;;;;;;;5.07;0.63;;;;;;;8.27;98.21;101977.50;1993826;29;31799;-69
2022/07/28 00:45:27;;;;;;;1.92;0.70;;;;;;;8.26;98.87;101981.06;2001157;29;22120;-68
2022/07/28 00:46:29;;;;;;;2.58;0.70;;;;;;;8.26;98.41;101981.94;2000470;29;25188;-69
2022/07/28 00:47:31;;;;;;;4.82;0.70;;;;;;;8.24;98.69;101983.72;1993922;29;30805;-69
2022/07/28 00:48:39;;;;;;;3.17;0.50;;;;;;;8.22;98.53;101981.03;1994009;29;22319;-69
2022/07/28 00:49:44;;;;;;;5.57;0.60;;;;;;;8.19;98.40;101980.13;2000836;29;29280;-69
2022/07/28 00:50:46;;;;;;;6.93;1.38;;;;;;;8.16;98.70;101983.66;1992753;29;28131;-69
2022/07/28 00:51:48;;;;;;;5.95;1.00;;;;;;;8.19;99.09;101980.13;1994080;29;20046;-67
2022/07/28 00:52:52;;;;;;;4.75;0.82;;;;;;;8.15;99.19;101989.03;2000701;29;20161;-69
2022/07/28 00:53:56;;;;;;;3.15;0.50;;;;;;;8.13;98.48;101986.34;1994541;29;20081;-69
2022/07/28 00:54:58;;;;;;;4.70;0.65;;;;;;;8.15;98.94;101991.69;1994014;29;26937;-69
2022/07/28 00:56:00;;;;;;;3.60;0.70;;;;;;;8.10;97.49;101991.66;1993502;29;28156;-69
2022/07/28 00:57:03;;;;;;;4.55;0.80;;;;;;;8.07;97.48;101982.75;1993869;29;28577;-69
2022/07/28 00:58:06;;;;;;;2.05;0.57;;;;;;;8.03;97.41;101988.06;2000892;29;27162;-69
2022/07/28 00:59:08;;;;;;;1.70;0.45;;;;;;;7.99;97.21;101986.28;1993174;29;28781;-69
2022/07/28 01:00:11;;;;;;;3.60;0.50;;;;;;;7.94;97.42;101980.03;1992900;29;36230;-69
2022/07/28 01:01:18;;;;;;;3.40;0.88;;;;;;;7.92;97.25;101980.91;1993576;29;37423;-69
2022/07/28 01:02:20;;;;;;;4.57;0.88;;;;;;;7.88;97.67;101985.34;1994584;29;26209;-69
2022/07/28 01:03:23;;;;;;;5.32;0.70;;;;;;;7.91;98.83;101977.34;1993817;29;30878;-69
2022/07/28 01:04:25;;;;;;;4.45;0.80;;;;;;;7.90;99.18;101977.34;2000406;29;33807;-69
2022/07/28 01:05:40;;;;;;;4.82;0.90;;;;;;;7.93;99.20;101985.34;2000423;29;31129;-69
2022/07/28 01:06:50;;;;;;;2.95;1.10;;;;;;;7.91;99.19;101979.13;2001463;29;25132;-69
2022/07/28 01:08:11;;;;;;;4.15;0.65;;;;;;;7.95;99.50;101981.81;1993353;29;29075;-69
2022/07/28 01:09:34;;;;;;;3.95;0.60;;;;;;;7.92;99.26;101988.91;1995860;29;33205;-69
2022/07/28 01:11:01;;;;;;;4.55;0.75;;;;;;;7.96;100.00;101980.91;1996788;29;29042;-69
2022/07/28 01:12:21;;;;;;;3.75;0.98;;;;;;;7.96;99.52;101988.91;1993736;29;28553;-69
2022/07/28 01:13:37;;;;;;;3.50;0.93;;;;;;;7.96;99.60;101988.03;1994504;29;20951;-69
2022/07/28 01:15:13;;;;;;;3.75;0.80;;;;;;;7.96;99.46;101982.72;1993958;29;33780;-69
2022/07/28 01:16:15;;;;;;;3.42;0.95;;;;;;;7.92;99.76;101989.81;1993452;29;30770;-69
2022/07/28 01:17:40;;;;;;;3.30;0.77;;;;;;;7.92;99.45;101988.91;1993667;29;23251;-69
2022/07/28 01:18:53;;;;;;;5.13;1.10;;;;;;;7.89;98.91;101981.78;1994547;29;20878;-69
2022/07/28 01:20:27;;;;;;;3.25;1.30;;;;;;;7.94;100.00;101984.47;2000954;29;27659;-69
2022/07/28 01:21:35;;;;;;;3.08;0.70;;;;;;;7.87;99.54;101983.56;1995726;29;33360;-69
2022/07/28 01:22:45;;;;;;;4.10;0.90;;;;;;;7.83;99.19;101982.66;1993442;29;20055;-69
2022/07/28 01:24:27;;;;;;;3.75;1.15;;;;;;;7.81;99.61;101984.41;1987480;29;20187;-69
2022/07/28 01:25:56;;;;;;;4.10;0.90;;;;;;;7.82;100.00;101982.63;1993698;29;20050;-70
2022/07/28 01:27:18;;;;;;;3.78;0.80;;;;;;;7.80;99.95;101977.28;1994499;29;27151;-70
2022/07/28 01:28:41;;;;;;;4.90;0.85;;;;;;;7.79;100.00;101974.63;1993960;29;24181;-69
2022/07/28 01:29:59;;;;;;;3.47;0.90;;;;;;;7.84;100.00;101983.53;2000904;29;33581;-69
2022/07/28 01:31:06;;;;;;;3.90;0.90;;;;;;;7.86;100.00;101968.44;1996910;29;25614;-69
2022/07/28 01:32:24;;;;;;;2.03;0.90;;;;;;;7.87;100.00;101969.34;1992609;29;29138;-70
2022/07/28 01:33:47;;;;;;;2.53;0.70;;;;;;;7.82;100.00;101969.31;1988047;29;20098;-69
2022/07/28 01:34:58;;;;;;;5.97;1.10;;;;;;;7.77;99.88;101969.28;1997388;29;37796;-69
2022/07/28 01:36:11;;;;;;;3.33;0.90;;;;;;;7.79;100.00;101970.19;1993483;29;20043;-70
2022/07/28 01:37:23;;;;;;;2.67;0.70;;;;;;;7.75;100.00;101970.16;1995539;29;32651;-69
2022/07/28 01:38:26;;;;;;;3.25;0.90;;;;;;;7.69;99.76;101965.69;1992865;29;35731;-70
2022/07/28 01:39:32;;;;;;;5.20;1.10;;;;;;;7.65;99.59;101966.56;1991850;29;36386;-69
2022/07/28 01:40:35;;;;;;;3.22;0.80;;;;;;;7.62;99.96;101966.53;1994006;29;21749;-70
2022/07/28 01:41:40;;;;;;;1.77;0.65;;;;;;;7.58;100.00;101965.63;1999601;29;31699;-69
2022/07/28 01:42:47;;;;;;;5.55;1.30;;;;;;;7.61;100.00;101964.78;2001444;29;26239;-69
2022/07/28 01:44:13;;;;;;;5.05;0.70;;;;;;;7.60;100.00;101960.31;2007256;29;30535;-69
2022/07/28 01:45:18;;;;;;;3.75;0.68;;;;;;;7.59;100.00;101966.50;1997162;29;20170;-70
2022/07/28 01:46:21;;;;;;;5.13;1.70;;;;;;;7.56;100.00;101955.84;1994072;29;32991;-69
2022/07/28 01:47:27;;;;;;;3.67;0.90;;;;;;;7.55;100.00;101962.03;1993073;29;20082;-69
2022/07/28 01:48:32;;;;;;;3.92;0.90;;;;;;;7.51;99.82;101960.25;1994186;29;31647;-70
2022/07/28 01:49:35;;;;;;;5.95;1.10;;;;;;;7.48;99.99;101957.56;1992703;29;31231;-69
2022/07/28 01:50:39;;;;;;;4.53;1.30;;;;;;;7.47;100.00;101953.13;1993556;29;20954;-69
2022/07/28 01:51:43;;;;;;;3.88;1.35;;;;;;;7.54;100.00;101946.97;1992282;29;32887;-70
2022/07/28 01:52:47;;;;;;;6.35;1.90;;;;;;;7.74;100.00;101952.41;1993497;29;29675;-69
2022/07/28 01:53:52;;;;;;;5.40;1.67;;;;;;;7.60;100.00;101953.19;1985415;29;20495;-69
2022/07/28 01:54:56;;;;;;;3.33;1.20;;;;;;;7.58;100.00;101957.63;1994652;29;29959;-69
2022/07/28 01:56:00;;;;;;;3.30;1.30;;;;;;;7.57;100.00;101952.28;2006889;29;29705;-68
2022/07/28 01:57:04;;;;;;;4.05;1.38;;;;;;;7.56;100.00;101956.72;1999926;29;30083;-69
2022/07/28 01:58:07;;;;;;;7.00;1.33;;;;;;;7.58;100.00;101954.97;1993603;29;26201;-69
2022/07/28 01:59:11;;;;;;;3.05;1.15;;;;;;;7.61;100.00;101948.78;1992481;29;36314;-70
2022/07/28 02:00:14;;;;;;;3.33;1.25;;;;;;;7.60;100.00;101953.19;2000299;29;34610;-69
2022/07/28 02:01:19;;;;;;;3.97;1.40;;;;;;;7.60;100.00;101952.31;1999931;29;20057;-69
2022/07/28 02:02:22;;;;;;;5.80;1.55;;;;;;;7.62;100.00;101954.09;2000494;29;20820;-69
2022/07/28 02:03:28;;;;;;;4.07;1.30;;;;;;;7.61;100.00;101955.00;1999880;29;37824;-70
2022/07/28 02:04:36;;;;;;;3.95;1.23;;;;;;;7.61;100.00;101948.78;1999410;29;29477;-69
2022/07/28 02:05:41;;;;;;;4.35;1.30;;;;;;;7.60;100.00;101947.88;1993831;29;22309;-70
2022/07/28 02:06:46;;;;;;;7.80;1.77;;;;;;;7.63;100.00;101953.22;1993242;29;32426;-70
2022/07/28 02:07:50;;;;;;;2.70;1.38;;;;;;;7.63;100.00;101952.34;2000164;29;31044;-70
2022/07/28 02:08:54;;;;;;;3.83;1.25;;;;;;;7.62;100.00;101955.88;1999964;29;32874;-70
2022/07/28 02:10:00;;;;;;;3.55;1.05;;;;;;;7.62;100.00;101948.75;1992290;29;30854;-70
2022/07/28 02:12:25;;;;;;;3.80;1.20;;;;;;;7.68;100.00;101949.69;1996842;29;40069;-69
2022/07/28 02:13:26;;;;;;;4.65;1.33;;;;;;;7.63;100.00;101941.69;2000758;29;20050;-70
2022/07/28 02:14:29;;;;;;;5.22;1.48;;;;;;;7.61;100.00;101943.44;1999268;29;26097;-69
2022/07/28 02:15:31;;;;;;;5.47;1.60;;;;;;;7.59;100.00;101946.09;2000332;29;32131;-69
2022/07/28 02:16:33;;;;;;;3.88;1.27;;;;;;;7.58;100.00;101946.97;1992758;29;29900;-69
2022/07/28 02:17:36;;;;;;;5.07;1.30;;;;;;;7.57;100.00;101945.19;1993577;29;29246;-70
2022/07/28 02:18:41;;;;;;;3.42;1.40;;;;;;;7.56;100.00;101942.53;2000053;29;34217;-69
2022/07/28 02:19:46;;;;;;;6.22;1.73;;;;;;;7.55;100.00;101946.94;1993198;29;21648;-70
2022/07/28 02:20:49;;;;;;;4.38;1.90;;;;;;;7.55;100.00;101946.06;1993705;29;33655;-69
2022/07/28 02:21:53;;;;;;;3.60;1.30;;;;;;;7.56;100.00;101940.75;1992643;29;31382;-70
2022/07/28 02:22:56;;;;;;;3.47;1.23;;;;;;;7.56;100.00;101939.84;1992811;29;23428;-69
2022/07/28 02:23:58;;;;;;;3.95;1.40;;;;;;;7.51;100.00;101934.50;1992753;29;32168;-68
2022/07/28 02:25:03;;;;;;;6.60;1.98;;;;;;;7.48;100.00;101937.13;2000164;29;25719;-70
2022/07/28 02:26:09;;;;;;;5.72;1.83;;;;;;;7.46;100.00;101933.56;1992525;29;33912;-69
2022/07/28 02:27:23;;;;;;;5.05;1.40;;;;;;;7.48;100.00;101945.13;1993854;29;20043;-70
2022/07/28 02:28:26;;;;;;;3.67;1.50;;;;;;;7.52;100.00;101938.94;1998523;29;31192;-69
2022/07/28 02:29:40;;;;;;;5.30;1.60;;;;;;;7.48;100.00;101947.78;1993732;29;20035;-69
2022/07/28 02:31:03;;;;;;;8.27;2.20;;;;;;;7.57;100.00;101939.88;2000013;29;30814;-68
2022/07/28 02:32:34;;;;;;;3.80;1.80;;;;;;;7.53;100.00;101939.84;1996338;29;35987;-70
2022/07/28 02:33:41;;;;;;;7.15;2.30;;;;;;;7.55;100.00;101944.28;1995478;29;36677;-70
2022/07/28 02:35:13;;;;;;;5.00;2.30;;;;;;;7.55;100.00;101944.28;2000270;29;33540;-70
2022/07/28 02:36:29;;;;;;;8.23;2.00;;;;;;;7.54;100.00;101942.50;1992800;29;31939;-69
2022/07/28 02:37:44;;;;;;;6.22;2.17;;;;;;;7.56;100.00;101945.19;1993081;29;27231;-69
2022/07/28 02:38:49;;;;;;;5.63;2.08;;;;;;;7.51;100.00;101942.47;2000460;29;21575;-70
2022/07/28 02:39:56;;;;;;;4.78;2.17;;;;;;;7.56;100.00;101948.75;1992410;29;32090;-70
2022/07/28 02:41:23;;;;;;;3.10;1.60;;;;;;;7.52;100.00;101941.63;1994080;29;27220;-70
2022/07/28 02:42:29;;;;;;;5.88;1.92;;;;;;;7.48;100.00;101944.25;2000652;29;27997;-70
2022/07/28 02:43:38;;;;;;;3.05;2.03;;;;;;;7.46;100.00;101944.22;2004241;29;20046;-69
2022/07/28 02:44:54;;;;;;;3.58;1.83;;;;;;;7.46;100.00;101944.22;2000421;29;32730;-69
2022/07/28 02:46:08;;;;;;;2.70;1.50;;;;;;;7.42;100.00;101943.31;2002327;29;35623;-69
2022/07/28 02:47:18;;;;;;;5.05;1.90;;;;;;;7.42;100.00;101947.75;2000387;29;26097;-69
2022/07/28 02:48:26;;;;;;;3.47;1.52;;;;;;;7.41;100.00;101952.22;2002104;29;42682;-70
2022/07/28 02:49:31;;;;;;;5.55;1.67;;;;;;;7.38;100.00;101951.28;2000821;29;20054;-70
2022/07/28 02:50:33;;;;;;;2.85;1.55;;;;;;;7.35;100.00;101951.28;2001880;29;28079;-70
2022/07/28 02:51:36;;;;;;;3.65;1.60;;;;;;;7.35;100.00;101956.59;2006983;29;32070;-70
2022/07/28 02:52:41;;;;;;;4.00;2.03;;;;;;;7.31;100.00;101936.16;2000434;29;23253;-69
2022/07/28 02:53:44;;;;;;;4.00;2.22;;;;;;;7.30;100.00;101945.00;2000951;29;24993;-69
2022/07/28 02:54:49;;;;;;;5.05;1.88;;;;;;;7.33;100.00;101945.03;2007041;29;30466;-69
2022/07/28 02:55:51;;;;;;;8.65;2.13;;;;;;;7.34;100.00;101944.13;1999719;29;37842;-70
2022/07/28 02:56:57;;;;;;;5.55;3.00;;;;;;;7.41;100.00;101951.28;2000712;29;35673;-70
2022/07/28 02:58:00;;;;;;;7.43;2.45;;;;;;;7.40;100.00;101958.41;1992313;29;26364;-70
2022/07/28 02:59:06;;;;;;;3.20;2.00;;;;;;;7.41;100.00;101957.53;1993662;29;30494;-70
2022/07/28 03:00:10;;;;;;;5.88;2.88;;;;;;;7.45;100.00;101953.13;2000856;29;31866;-70
2022/07/28 03:01:16;;;;;;;4.97;2.60;;;;;;;7.49;100.00;101952.25;2000063;29;33716;-70
2022/07/28 03:02:21;;;;;;;4.43;2.67;;;;;;;7.51;100.00;101955.81;2001025;29;30623;-70
2022/07/28 03:03:24;;;;;;;6.85;3.15;;;;;;;7.52;100.00;101949.59;2006571;29;38100;-70
2022/07/28 03:05:48;;;;;;;4.03;3.03;;;;;;;7.61;100.00;101960.31;2001151;29;27811;-70
2022/07/28 03:06:50;;;;;;;6.45;2.70;;;;;;;7.62;100.00;101951.41;2001501;29;20180;-70
2022/07/28 03:07:52;;;;;;;7.30;2.40;;;;;;;7.65;100.00;101956.78;2000130;29;27472;-70
2022/07/28 03:08:54;;;;;;;3.78;2.33;;;;;;;7.73;100.00;101954.16;1999999;29;38163;-70
2022/07/28 03:09:57;;;;;;;5.25;2.63;;;;;;;7.75;100.00;101949.75;2000650;29;23940;-69
2022/07/28 03:11:10;;;;;;;5.80;3.08;;;;;;;7.84;100.00;101952.44;2000157;29;41651;-70
2022/07/28 03:12:12;;;;;;;7.80;2.75;;;;;;;7.86;100.00;101952.47;1993521;29;20131;-69
2022/07/28 03:13:14;;;;;;;4.45;2.63;;;;;;;7.90;100.00;101953.38;1993177;29;24260;-70
2022/07/28 03:14:16;;;;;;;8.57;3.30;;;;;;;7.98;100.00;101949.81;1993430;29;23478;-70
2022/07/28 03:15:18;;;;;;;5.47;2.70;;;;;;;7.96;100.00;101951.59;1993370;29;22182;-70
2022/07/28 03:16:20;;;;;;;6.13;2.47;;;;;;;7.97;100.00;101960.50;1999604;29;34827;-69
2022/07/28 03:17:24;;;;;;;4.97;2.88;;;;;;;8.06;100.00;101956.94;2000567;29;20959;-70
2022/07/28 03:18:27;;;;;;;6.45;2.90;;;;;;;8.10;100.00;101956.09;1993635;29;20046;-70
2022/07/28 03:19:29;;;;;;;3.33;2.45;;;;;;;8.10;100.00;101959.66;1992902;29;31073;-70
2022/07/28 03:20:34;;;;;;;7.78;2.40;;;;;;;8.15;100.00;101968.56;1993446;29;20023;-70
2022/07/28 03:21:37;;;;;;;6.30;2.53;;;;;;;8.19;100.00;101958.81;1992774;29;27978;-70
2022/07/28 03:22:39;;;;;;;5.60;2.92;;;;;;;8.26;100.00;101963.28;1993076;29;30888;-69
2022/07/28 03:23:47;;;;;;;3.42;2.25;;;;;;;8.30;100.00;101957.03;1992511;29;35265;-70
2022/07/28 03:24:53;;;;;;;5.45;2.42;;;;;;;8.34;100.00;101960.63;1992635;29;34792;-70
2022/07/28 03:26:04;;;;;;;4.40;2.10;;;;;;;8.34;100.00;101964.16;1993597;29;20957;-70
2022/07/28 03:27:29;;;;;;;3.60;1.85;;;;;;;8.36;100.00;101957.09;1999769;29;30721;-70
2022/07/28 03:28:34;;;;;;;5.72;2.60;;;;;;;8.39;100.00;101967.75;1993225;29;20047;-70
2022/07/28 03:29:39;;;;;;;6.00;2.78;;;;;;;8.45;100.00;101960.66;1993577;29;30905;-70
2022/07/28 03:30:46;;;;;;;4.35;2.25;;;;;;;8.50;100.00;101965.13;1992095;29;34145;-70
2022/07/28 03:31:51;;;;;;;4.28;2.53;;;;;;;8.52;100.00;101965.13;1993988;29;20449;-70
2022/07/28 03:32:57;;;;;;;4.05;2.35;;;;;;;8.56;100.00;101975.84;1992666;29;33114;-69
2022/07/28 03:34:01;;;;;;;6.32;2.20;;;;;;;8.59;100.00;101974.94;1993843;29;30141;-70
2022/07/28 03:35:05;;;;;;;6.30;2.78;;;;;;;8.65;100.00;101968.72;1992542;29;26812;-70
2022/07/28 03:36:15;;;;;;;4.60;2.55;;;;;;;8.69;100.00;101974.06;1993032;29;24196;-70
2022/07/28 03:37:26;;;;;;;6.43;2.75;;;;;;;8.73;100.00;101975.84;1998969;29;29991;-70
2022/07/28 03:38:34;;;;;;;6.18;3.05;;;;;;;8.76;100.00;101973.19;1993374;29;26691;-70
2022/07/28 03:39:45;;;;;;;4.38;2.05;;;;;;;8.83;100.00;101974.09;1999603;29;32043;-70
2022/07/28 03:40:49;;;;;;;6.78;1.98;;;;;;;8.84;100.00;101974.97;1998389;29;30151;-70
2022/07/28 03:41:52;;;;;;;4.05;1.65;;;;;;;8.85;100.00;101971.44;1999575;29;27490;-70
2022/07/28 03:42:56;;;;;;;4.45;1.90;;;;;;;8.87;100.00;101972.31;1992896;29;20889;-70
2022/07/28 03:43:59;;;;;;;3.75;1.63;;;;;;;8.86;100.00;101976.75;1992412;29;40696;-70
2022/07/28 03:45:02;;;;;;;3.97;1.73;;;;;;;8.88;99.93;101974.09;1992609;29;30719;-70
2022/07/28 03:46:03;;;;;;;5.95;1.70;;;;;;;8.89;100.00;101978.56;1992776;29;24698;-70
2022/07/28 03:47:13;;;;;;;5.30;1.88;;;;;;;8.91;100.00;101979.44;1992789;29;20062;-70
2022/07/28 03:48:15;;;;;;;3.90;1.65;;;;;;;8.91;100.00;101977.66;1992801;29;20090;-70
2022/07/28 03:49:17;;;;;;;3.55;1.30;;;;;;;8.92;99.17;101984.78;1993118;29;25495;-70
2022/07/28 03:50:28;;;;;;;4.18;1.50;;;;;;;8.94;99.25;101979.44;1992855;29;31934;-70
2022/07/28 03:51:33;;;;;;;5.03;1.63;;;;;;;8.94;98.87;101987.47;2000000;29;23149;-70
2022/07/28 03:52:35;;;;;;;3.25;1.38;;;;;;;8.96;98.95;101980.34;1999739;29;28596;-70
2022/07/28 03:53:37;;;;;;;5.15;1.75;;;;;;;9.00;99.31;101982.13;2000431;29;30199;-69
2022/07/28 03:54:44;;;;;;;4.80;1.73;;;;;;;9.02;99.59;101984.78;1992379;29;20150;-70
2022/07/28 03:55:49;;;;;;;6.47;1.60;;;;;;;9.04;99.93;101988.34;1994307;29;24898;-69
2022/07/28 03:56:51;;;;;;;3.25;1.60;;;;;;;9.10;100.00;101983.91;1993833;29;23893;-69
2022/07/28 03:57:53;;;;;;;2.97;1.58;;;;;;;9.11;99.40;101983.00;1994528;29;27263;-70
2022/07/28 03:58:55;;;;;;;4.18;1.80;;;;;;;9.16;99.58;101983.88;1994744;29;20089;-70
2022/07/28 03:59:57;;;;;;;2.95;1.35;;;;;;;9.21;99.14;101983.03;1994445;29;27964;-70
2022/07/28 04:00:59;;;;;;;4.20;1.63;;;;;;;9.25;99.66;101987.47;1994178;29;26657;-70
2022/07/28 04:02:01;;;;;;;3.72;1.48;;;;;;;9.29;99.86;101986.56;1994227;29;29935;-70
2022/07/28 04:03:03;;;;;;;5.95;2.10;;;;;;;9.32;98.78;101983.88;2001292;29;27152;-70
2022/07/28 04:04:05;;;;;;;2.33;1.25;;;;;;;9.36;99.55;101985.66;2001066;29;28478;-70
2022/07/28 04:05:08;;;;;;;5.07;1.83;;;;;;;9.41;98.81;101983.00;1993632;29;38370;-70
2022/07/28 04:06:15;;;;;;;4.80;1.75;;;;;;;9.43;98.43;101984.75;2001221;29;28969;-70
2022/07/28 04:07:17;;;;;;;5.35;2.10;;;;;;;9.46;99.38;101982.09;1999956;29;30569;-70
2022/07/28 04:08:18;;;;;;;5.03;1.70;;;;;;;9.49;98.57;101979.44;1994180;29;33687;-70
2022/07/28 04:09:20;;;;;;;5.45;1.67;;;;;;;9.52;98.68;101981.19;1993050;29;30077;-70
2022/07/28 04:10:22;;;;;;;4.95;1.67;;;;;;;9.55;99.03;101978.50;1993318;29;24935;-69
2022/07/28 04:11:23;;;;;;;3.63;1.75;;;;;;;9.60;98.58;101973.13;1993520;29;39383;-70
2022/07/28 04:12:25;;;;;;;3.53;1.60;;;;;;;9.63;98.78;101974.03;1994613;29;22089;-70
2022/07/28 04:13:27;;;;;;;5.40;1.67;;;;;;;9.69;98.95;101973.13;1994630;29;20109;-70
2022/07/28 04:14:29;;;;;;;8.07;1.70;;;;;;;9.75;97.97;101976.66;1994327;29;28805;-70
2022/07/28 04:15:31;;;;;;;5.00;1.70;;;;;;;9.85;97.90;101968.63;1994181;29;31711;-70
2022/07/28 04:16:33;;;;;;;2.88;1.52;;;;;;;9.96;97.59;101965.91;1994629;29;22287;-70
2022/07/28 04:17:36;;;;;;;3.17;1.88;;;;;;;10.10;96.87;101969.41;1993802;29;35861;-70
2022/07/28 04:18:38;;;;;;;3.08;2.03;;;;;;;10.25;97.19;101966.66;1994570;29;24216;-70
2022/07/28 04:19:40;;;;;;;3.22;1.80;;;;;;;10.41;96.82;101969.28;1993618;29;33461;-69
2022/07/28 04:20:43;;;;;;;5.72;2.00;;;;;;;10.56;96.62;101966.53;1994108;29;27396;-70
2022/07/28 04:21:45;;;;;;;7.65;1.88;;;;;;;10.81;95.87;101966.38;1994139;29;20165;-70
2022/07/28 04:22:49;;;;;;;3.75;1.77;;;;;;;11.14;94.32;101957.13;1993758;29;20126;-70
2022/07/28 04:23:51;;;;;;;3.35;1.70;;;;;;;11.46;93.44;101951.47;2000675;29;32604;-70
2022/07/28 04:24:52;;;;;;;4.43;1.20;;;;;;;11.77;91.49;101953.84;2001189;29;26502;-70
2022/07/28 04:25:54;;;;;;;5.05;1.33;;;;;;;11.95;89.77;101949.16;2000847;29;28739;-70
2022/07/28 04:26:56;;;;;;;3.05;1.48;;;;;;;12.17;88.43;101952.50;1994721;29;20123;-70
2022/07/28 04:27:58;;;;;;;4.32;1.40;;;;;;;12.26;86.92;101952.34;1993819;29;33147;-70
2022/07/28 04:28:59;;;;;;;3.78;1.05;;;;;;;12.40;86.18;101949.50;1994460;29;24229;-70
2022/07/28 04:30:14;;;;;;;2.70;1.10;;;;;;;12.40;85.30;101952.19;1994250;29;20051;-70
2022/07/28 04:31:16;;;;;;;6.18;1.17;;;;;;;12.38;85.17;101952.19;1993666;29;21865;-70
2022/07/28 04:32:18;;;;;;;2.67;0.82;;;;;;;12.33;85.14;101958.53;1993968;29;20151;-70
2022/07/28 04:33:20;;;;;;;2.63;0.95;;;;;;;12.23;84.59;101965.81;1993931;29;33199;-70
2022/07/28 04:34:22;;;;;;;3.15;1.02;;;;;;;12.11;84.84;101958.81;1993727;29;24608;-70
2022/07/28 04:35:26;;;;;;;1.77;1.00;;;;;;;12.03;85.18;101958.91;1993764;29;23241;-70
2022/07/28 04:36:28;;;;;;;3.55;1.45;;;;;;;11.89;85.39;101968.00;1993465;29;20050;-70
2022/07/28 04:37:29;;;;;;;5.55;1.15;;;;;;;11.85;86.12;101961.78;1993620;29;39926;-70
2022/07/28 04:38:33;;;;;;;4.78;1.10;;;;;;;11.78;86.32;101960.97;1994078;29;27346;-70
2022/07/28 04:39:35;;;;;;;3.15;1.13;;;;;;;11.74;86.64;101964.59;1994006;29;35711;-70
2022/07/28 04:40:37;;;;;;;3.42;1.08;;;;;;;11.65;86.82;101972.75;2000717;29;26474;-70
2022/07/28 04:41:40;;;;;;;2.42;1.35;;;;;;;11.57;86.43;101972.81;2000782;29;26783;-70
2022/07/28 04:42:42;;;;;;;2.85;1.45;;;;;;;11.55;87.33;101971.06;1993745;29;27200;-70
2022/07/28 04:43:46;;;;;;;3.58;1.23;;;;;;;11.54;87.46;101966.59;2001246;29;20046;-70
2022/07/28 04:44:48;;;;;;;3.13;1.55;;;;;;;11.50;87.90;101976.47;2000831;29;21387;-70
2022/07/28 04:45:50;;;;;;;4.05;1.30;;;;;;;11.49;87.81;101971.16;1993836;29;32575;-70
2022/07/28 04:46:54;;;;;;;4.30;1.58;;;;;;;11.43;87.84;101967.63;1994440;29;20043;-70
2022/07/28 04:47:56;;;;;;;3.78;1.65;;;;;;;11.40;88.00;101975.69;1993983;29;27505;-70
2022/07/28 04:48:58;;;;;;;4.28;1.65;;;;;;;11.40;88.40;101970.31;1993884;29;34328;-70
2022/07/28 04:50:00;;;;;;;7.63;1.52;;;;;;;11.43;88.49;101972.97;1993972;29;30352;-70
2022/07/28 04:51:02;;;;;;;5.43;1.27;;;;;;;11.44;88.56;101974.72;1993292;29;33262;-70
2022/07/28 04:52:07;;;;;;;3.80;1.27;;;;;;;11.43;88.69;101970.28;1994622;29;20135;-70
2022/07/28 04:53:08;;;;;;;3.80;1.80;;;;;;;11.43;88.52;101970.28;1993761;29;31482;-70
2022/07/28 04:54:12;;;;;;;2.55;1.20;;;;;;;11.47;88.62;101973.84;1993843;29;39720;-70
2022/07/28 04:55:16;;;;;;;3.97;1.17;;;;;;;11.50;87.98;101973.78;1993222;29;23968;-70
2022/07/28 04:56:18;;;;;;;5.65;1.40;;;;;;;11.52;88.38;101973.78;1993428;29;24502;-70
2022/07/28 04:57:19;;;;;;;2.67;1.27;;;;;;;11.54;87.86;101971.94;1994047;29;23936;-70
2022/07/28 04:58:26;;;;;;;3.53;1.50;;;;;;;11.57;88.33;101972.81;1993851;29;30201;-70
2022/07/28 04:59:28;;;;;;;3.58;1.75;;;;;;;11.59;88.48;101970.13;1993893;29;28175;-70
2022/07/28 05:00:33;;;;;;;6.95;2.08;;;;;;;11.62;88.54;101965.59;1994870;29;20047;-70
2022/07/28 05:01:37;;;;;;;3.17;1.73;;;;;;;11.66;88.15;101966.47;1993976;29;30294;-70
2022/07/28 05:02:42;;;;;;;7.70;1.50;;;;;;;11.68;87.72;101958.41;1994458;29;20123;-70
2022/07/28 05:03:44;;;;;;;4.57;1.85;;;;;;;11.71;87.44;101967.31;2000923;29;28377;-70
2022/07/28 05:04:45;;;;;;;3.85;1.40;;;;;;;11.73;87.62;101962.81;2000258;29;35199;-70
2022/07/28 05:05:48;;;;;;;2.90;1.05;;;;;;;11.77;87.49;101959.22;1994553;29;20047;-70
2022/07/28 05:06:55;;;;;;;4.20;1.70;;;;;;;11.80;87.12;101958.28;1992942;29;36396;-70
2022/07/28 05:07:57;;;;;;;3.42;1.75;;;;;;;11.82;86.85;101956.44;1993497;29;38808;-70
2022/07/28 05:08:59;;;;;;;5.53;1.08;;;;;;;11.84;87.05;101960.91;1994099;29;25135;-70
2022/07/28 05:10:05;;;;;;;3.72;1.35;;;;;;;11.85;87.33;101960.00;1994540;29;20094;-70